Terminal Aerodrome Forecast
Issued by NWS Knoxville/Tri Cities, TN

Home | Current Version | Previous Version | Text Only | Print | Product List | Glossary On
Versions: 1 2 3 4 5 6 7 8 9 10 11 12 13 14 15 16 17 18 19 20 21 22 23 24 25 26 27 28 29 30 31 32 33 34 35 36 37 38 39 40
000
FTUS44 KMRX 240535
TAFTRI
TAF
KTRI 240535Z 2406/2506 VRB03KT P6SM SCT050 BKN250
     FM240900 VRB03KT 4SM BR FEW002 SCT040 BKN250
     FM241300 22006KT P6SM SCT035 BKN250
     FM241600 23010G17KT P6SM VCTS SCT035CB BKN200
      TEMPO 2420/2424 3SM TSRA BKN035CB
     FM250100 24010KT P6SM VCSH SCT040 BKN150
     FM250300 26005KT P6SM SCT035 BKN250=

USA.gov is the U.S. government's official web portal to all federal, state and local government web resources and services.